KCUT

Custer County Airport

Custer, South Dakota, USA
METAR KCUT 231353Z AUTO 00000KT 10SM CLR 13/09 A3001 RMK AO2 SLP120 T01280094
Observed Flight Rules
May-23 @ 13:53 UTC (an hour ago) Visual Flight Rules
Visibility Clouds
10 miles
  • Clear skies
Temperatures Readings
Current 13°C / 55°F
Dewpoint 9°C / 48°F
Humidity 77%
Altimeter 30.01" Hg
Pressure 1012 hPa
Elevation 1725
METAR KCUT 231353Z AUTO 00000KT 10SM CLR 13/09 A3001 RMK AO2 SLP120 T01280094
Observed Flight Rules
May-23 @ 13:53 UTC
(an hour ago)
VFR
Clouds
  • Clear skies
Temperature Dewpoint
13°C / 55°F 9°C / 48°F
Humidity Altimeter Pressure
77% 30.01" Hg 1012 hPa